Milwaukee, Wisconsin
Traffic Map
Current Weather Conditions
Milwaukee, Wisconsin
Overcast
Overcast
36°
Feels Like: 28°
Wind Chill: 28° Ceiling: 1900
Heat Index: 36° Visibility: 10mi
Dew Point: 31° Wind: 10mph
Humidity: 82% Direction: 110° (ESE)
Pressure: 30.31in Gusts: 0mph
Raw Report DataKMKE 230452Z 11009KT 10SM OVC019 02/M01 A3031 RMK AO2 SLP271 T00221006
Traffic Incident Summary
Active as of:
Severity:
Category:
InformationThere was an issue retrieving the traffic information for this location. Please try a different location or try again shortly.
Advertisements